sensor_id;sensor_type;location;lat;lon;timestamp;P1;durP1;ratioP1;P2;durP2;ratioP2
54430;SDS011;40342;52.998;5.862;2023-12-20T00:00:04;11.52;;;1.95;;
54430;SDS011;40342;52.998;5.862;2023-12-20T00:02:31;15.90;;;2.53;;
54430;SDS011;40342;52.998;5.862;2023-12-20T00:04:56;17.58;;;2.80;;
54430;SDS011;40342;52.998;5.862;2023-12-20T00:07:22;12.07;;;2.25;;
54430;SDS011;40342;52.998;5.862;2023-12-20T00:09:47;12.93;;;2.08;;
54430;SDS011;40342;52.998;5.862;2023-12-20T00:12:13;20.27;;;2.97;;
54430;SDS011;40342;52.998;5.862;2023-12-20T00:14:39;15.88;;;3.00;;
54430;SDS011;40342;52.998;5.862;2023-12-20T00:17:04;16.00;;;2.90;;
54430;SDS011;40342;52.998;5.862;2023-12-20T00:19:30;17.35;;;2.83;;
54430;SDS011;40342;52.998;5.862;2023-12-20T00:21:55;21.02;;;3.50;;
54430;SDS011;40342;52.998;5.862;2023-12-20T00:24:21;19.42;;;3.40;;
54430;SDS011;40342;52.998;5.862;2023-12-20T00:26:47;18.42;;;2.80;;
54430;SDS011;40342;52.998;5.862;2023-12-20T00:29:12;15.18;;;2.70;;
54430;SDS011;40342;52.998;5.862;2023-12-20T00:31:38;14.38;;;2.78;;
54430;SDS011;40342;52.998;5.862;2023-12-20T00:34:03;15.45;;;2.88;;
54430;SDS011;40342;52.998;5.862;2023-12-20T00:36:29;22.95;;;3.67;;
54430;SDS011;40342;52.998;5.862;2023-12-20T00:38:54;12.32;;;2.38;;
54430;SDS011;40342;52.998;5.862;2023-12-20T00:41:20;10.70;;;2.25;;
54430;SDS011;40342;52.998;5.862;2023-12-20T00:43:46;14.13;;;2.63;;
54430;SDS011;40342;52.998;5.862;2023-12-20T00:46:11;7.25;;;1.77;;
54430;SDS011;40342;52.998;5.862;2023-12-20T00:48:37;13.82;;;2.47;;
54430;SDS011;40342;52.998;5.862;2023-12-20T00:51:03;11.30;;;2.40;;
54430;SDS011;40342;52.998;5.862;2023-12-20T00:53:29;11.73;;;2.00;;
54430;SDS011;40342;52.998;5.862;2023-12-20T00:55:54;11.85;;;2.58;;
54430;SDS011;40342;52.998;5.862;2023-12-20T00:58:20;18.48;;;3.10;;
54430;SDS011;40342;52.998;5.862;2023-12-20T01:00:45;17.23;;;3.15;;
54430;SDS011;40342;52.998;5.862;2023-12-20T01:03:11;17.90;;;2.83;;
54430;SDS011;40342;52.998;5.862;2023-12-20T01:05:37;22.52;;;2.97;;
54430;SDS011;40342;52.998;5.862;2023-12-20T01:08:03;18.40;;;3.33;;
54430;SDS011;40342;52.998;5.862;2023-12-20T01:10:29;19.67;;;3.58;;
54430;SDS011;40342;52.998;5.862;2023-12-20T01:12:55;19.35;;;3.25;;
54430;SDS011;40342;52.998;5.862;2023-12-20T01:15:20;18.38;;;3.03;;
54430;SDS011;40342;52.998;5.862;2023-12-20T01:17:46;20.80;;;3.78;;
54430;SDS011;40342;52.998;5.862;2023-12-20T01:20:12;23.10;;;5.53;;
54430;SDS011;40342;52.998;5.862;2023-12-20T01:22:38;22.50;;;2.97;;
54430;SDS011;40342;52.998;5.862;2023-12-20T01:25:04;25.42;;;3.95;;
54430;SDS011;40342;52.998;5.862;2023-12-20T01:27:30;18.77;;;3.53;;
54430;SDS011;40342;52.998;5.862;2023-12-20T01:29:56;19.85;;;3.65;;
54430;SDS011;40342;52.998;5.862;2023-12-20T01:32:22;25.02;;;4.20;;
54430;SDS011;40342;52.998;5.862;2023-12-20T01:34:47;16.40;;;3.17;;
54430;SDS011;40342;52.998;5.862;2023-12-20T01:37:13;14.90;;;3.20;;
54430;SDS011;40342;52.998;5.862;2023-12-20T01:39:39;20.08;;;3.55;;
54430;SDS011;40342;52.998;5.862;2023-12-20T01:42:05;19.52;;;3.42;;
54430;SDS011;40342;52.998;5.862;2023-12-20T01:44:30;21.73;;;4.07;;
54430;SDS011;40342;52.998;5.862;2023-12-20T01:46:56;19.52;;;3.60;;
54430;SDS011;40342;52.998;5.862;2023-12-20T01:49:22;24.83;;;4.20;;
54430;SDS011;40342;52.998;5.862;2023-12-20T01:51:48;24.40;;;4.18;;
54430;SDS011;40342;52.998;5.862;2023-12-20T01:54:15;23.65;;;5.18;;
54430;SDS011;40342;52.998;5.862;2023-12-20T01:56:41;26.67;;;4.50;;
54430;SDS011;40342;52.998;5.862;2023-12-20T01:59:07;22.60;;;3.92;;
54430;SDS011;40342;52.998;5.862;2023-12-20T02:01:34;21.90;;;4.13;;
54430;SDS011;40342;52.998;5.862;2023-12-20T02:04:00;17.60;;;3.53;;
54430;SDS011;40342;52.998;5.862;2023-12-20T02:06:30;18.35;;;4.07;;
54430;SDS011;40342;52.998;5.862;2023-12-20T02:08:57;26.55;;;4.13;;
54430;SDS011;40342;52.998;5.862;2023-12-20T02:11:23;21.92;;;4.22;;
54430;SDS011;40342;52.998;5.862;2023-12-20T02:13:50;20.98;;;3.97;;
54430;SDS011;40342;52.998;5.862;2023-12-20T02:16:16;24.63;;;4.05;;
54430;SDS011;40342;52.998;5.862;2023-12-20T02:18:42;35.05;;;6.03;;
54430;SDS011;40342;52.998;5.862;2023-12-20T02:21:09;28.65;;;3.78;;
54430;SDS011;40342;52.998;5.862;2023-12-20T02:23:35;28.10;;;4.72;;
54430;SDS011;40342;52.998;5.862;2023-12-20T02:26:00;26.35;;;4.30;;
54430;SDS011;40342;52.998;5.862;2023-12-20T02:28:26;26.92;;;4.68;;
54430;SDS011;40342;52.998;5.862;2023-12-20T02:30:52;25.88;;;4.60;;
54430;SDS011;40342;52.998;5.862;2023-12-20T02:33:18;25.50;;;4.60;;
54430;SDS011;40342;52.998;5.862;2023-12-20T02:35:43;31.23;;;5.53;;
54430;SDS011;40342;52.998;5.862;2023-12-20T02:38:09;24.05;;;4.30;;
54430;SDS011;40342;52.998;5.862;2023-12-20T02:40:35;21.60;;;4.63;;
54430;SDS011;40342;52.998;5.862;2023-12-20T02:43:00;23.48;;;4.20;;
54430;SDS011;40342;52.998;5.862;2023-12-20T02:45:26;21.13;;;5.32;;
54430;SDS011;40342;52.998;5.862;2023-12-20T02:47:52;18.98;;;4.18;;
54430;SDS011;40342;52.998;5.862;2023-12-20T02:50:17;25.38;;;4.32;;
54430;SDS011;40342;52.998;5.862;2023-12-20T02:52:44;20.95;;;4.05;;
54430;SDS011;40342;52.998;5.862;2023-12-20T02:55:10;20.60;;;4.20;;
54430;SDS011;40342;52.998;5.862;2023-12-20T02:57:36;31.08;;;4.82;;
54430;SDS011;40342;52.998;5.862;2023-12-20T03:00:06;16.60;;;3.65;;
54430;SDS011;40342;52.998;5.862;2023-12-20T03:02:36;21.35;;;4.15;;
54430;SDS011;40342;52.998;5.862;2023-12-20T03:05:02;20.45;;;5.07;;
54430;SDS011;40342;52.998;5.862;2023-12-20T03:07:28;27.42;;;3.83;;
54430;SDS011;40342;52.998;5.862;2023-12-20T03:09:53;25.60;;;4.88;;
54430;SDS011;40342;52.998;5.862;2023-12-20T03:12:19;23.27;;;4.05;;
54430;SDS011;40342;52.998;5.862;2023-12-20T03:14:45;21.98;;;5.55;;
54430;SDS011;40342;52.998;5.862;2023-12-20T03:17:10;28.55;;;4.20;;
54430;SDS011;40342;52.998;5.862;2023-12-20T03:19:36;28.85;;;4.47;;
54430;SDS011;40342;52.998;5.862;2023-12-20T03:22:01;30.17;;;4.97;;
54430;SDS011;40342;52.998;5.862;2023-12-20T03:24:27;29.40;;;5.38;;
54430;SDS011;40342;52.998;5.862;2023-12-20T03:26:53;25.13;;;3.72;;
54430;SDS011;40342;52.998;5.862;2023-12-20T03:29:19;26.63;;;5.20;;
54430;SDS011;40342;52.998;5.862;2023-12-20T03:31:44;27.48;;;4.70;;
54430;SDS011;40342;52.998;5.862;2023-12-20T03:34:10;18.92;;;3.90;;
54430;SDS011;40342;52.998;5.862;2023-12-20T03:36:36;31.35;;;5.40;;
54430;SDS011;40342;52.998;5.862;2023-12-20T03:39:02;27.63;;;4.03;;
54430;SDS011;40342;52.998;5.862;2023-12-20T03:41:28;25.02;;;4.88;;
54430;SDS011;40342;52.998;5.862;2023-12-20T03:43:53;31.65;;;4.65;;
54430;SDS011;40342;52.998;5.862;2023-12-20T03:46:19;23.23;;;4.63;;
54430;SDS011;40342;52.998;5.862;2023-12-20T03:48:45;22.63;;;4.43;;
54430;SDS011;40342;52.998;5.862;2023-12-20T03:51:10;24.65;;;4.55;;
54430;SDS011;40342;52.998;5.862;2023-12-20T03:53:36;30.02;;;4.25;;
54430;SDS011;40342;52.998;5.862;2023-12-20T03:56:02;23.98;;;4.43;;
54430;SDS011;40342;52.998;5.862;2023-12-20T03:58:28;25.02;;;4.40;;
54430;SDS011;40342;52.998;5.862;2023-12-20T04:00:54;25.23;;;4.65;;
54430;SDS011;40342;52.998;5.862;2023-12-20T04:03:19;29.00;;;5.05;;
54430;SDS011;40342;52.998;5.862;2023-12-20T04:05:45;26.10;;;4.40;;
54430;SDS011;40342;52.998;5.862;2023-12-20T04:08:11;28.10;;;5.50;;
54430;SDS011;40342;52.998;5.862;2023-12-20T04:10:36;27.45;;;5.13;;
54430;SDS011;40342;52.998;5.862;2023-12-20T04:13:02;25.25;;;4.88;;
54430;SDS011;40342;52.998;5.862;2023-12-20T04:15:28;22.25;;;4.60;;
54430;SDS011;40342;52.998;5.862;2023-12-20T04:17:54;26.13;;;4.35;;
54430;SDS011;40342;52.998;5.862;2023-12-20T04:20:19;19.48;;;3.58;;
54430;SDS011;40342;52.998;5.862;2023-12-20T04:22:45;20.38;;;3.88;;
54430;SDS011;40342;52.998;5.862;2023-12-20T04:25:11;26.52;;;4.78;;
54430;SDS011;40342;52.998;5.862;2023-12-20T04:27:36;29.45;;;4.70;;
54430;SDS011;40342;52.998;5.862;2023-12-20T04:30:02;21.30;;;4.38;;
54430;SDS011;40342;52.998;5.862;2023-12-20T04:32:28;21.67;;;4.18;;
54430;SDS011;40342;52.998;5.862;2023-12-20T04:34:54;22.70;;;4.43;;
54430;SDS011;40342;52.998;5.862;2023-12-20T04:37:20;17.38;;;3.92;;
54430;SDS011;40342;52.998;5.862;2023-12-20T04:39:45;20.13;;;3.97;;
54430;SDS011;40342;52.998;5.862;2023-12-20T04:42:11;25.63;;;3.85;;
54430;SDS011;40342;52.998;5.862;2023-12-20T04:44:37;23.25;;;4.55;;
54430;SDS011;40342;52.998;5.862;2023-12-20T04:47:02;19.88;;;4.28;;
54430;SDS011;40342;52.998;5.862;2023-12-20T04:49:28;20.90;;;4.88;;
54430;SDS011;40342;52.998;5.862;2023-12-20T04:51:54;21.35;;;4.18;;
54430;SDS011;40342;52.998;5.862;2023-12-20T04:54:20;21.63;;;4.30;;
54430;SDS011;40342;52.998;5.862;2023-12-20T04:56:46;22.65;;;4.13;;
54430;SDS011;40342;52.998;5.862;2023-12-20T04:59:12;27.00;;;4.68;;
54430;SDS011;40342;52.998;5.862;2023-12-20T05:01:38;26.48;;;5.22;;
54430;SDS011;40342;52.998;5.862;2023-12-20T05:04:04;25.77;;;4.88;;
54430;SDS011;40342;52.998;5.862;2023-12-20T05:06:29;25.20;;;3.97;;
54430;SDS011;40342;52.998;5.862;2023-12-20T05:08:55;25.38;;;4.25;;
54430;SDS011;40342;52.998;5.862;2023-12-20T05:11:21;21.65;;;3.90;;
54430;SDS011;40342;52.998;5.862;2023-12-20T05:13:46;21.02;;;4.35;;
54430;SDS011;40342;52.998;5.862;2023-12-20T05:16:12;24.08;;;4.70;;
54430;SDS011;40342;52.998;5.862;2023-12-20T05:18:39;25.60;;;5.68;;
54430;SDS011;40342;52.998;5.862;2023-12-20T05:21:05;29.52;;;5.05;;
54430;SDS011;40342;52.998;5.862;2023-12-20T05:23:31;24.25;;;4.13;;
54430;SDS011;40342;52.998;5.862;2023-12-20T05:25:57;24.90;;;4.50;;
54430;SDS011;40342;52.998;5.862;2023-12-20T05:28:24;27.10;;;5.43;;
54430;SDS011;40342;52.998;5.862;2023-12-20T05:30:49;21.65;;;4.80;;
54430;SDS011;40342;52.998;5.862;2023-12-20T05:33:15;25.23;;;5.55;;
54430;SDS011;40342;52.998;5.862;2023-12-20T05:35:41;27.70;;;4.20;;
54430;SDS011;40342;52.998;5.862;2023-12-20T05:38:06;18.85;;;3.45;;
54430;SDS011;40342;52.998;5.862;2023-12-20T05:40:32;28.95;;;5.18;;
54430;SDS011;40342;52.998;5.862;2023-12-20T05:42:57;21.20;;;4.63;;
54430;SDS011;40342;52.998;5.862;2023-12-20T05:45:23;24.92;;;4.75;;
54430;SDS011;40342;52.998;5.862;2023-12-20T05:47:49;27.35;;;4.80;;
54430;SDS011;40342;52.998;5.862;2023-12-20T05:50:14;21.13;;;4.65;;
54430;SDS011;40342;52.998;5.862;2023-12-20T05:52:40;23.33;;;4.63;;
54430;SDS011;40342;52.998;5.862;2023-12-20T05:55:06;25.63;;;4.65;;
54430;SDS011;40342;52.998;5.862;2023-12-20T05:57:32;23.35;;;5.07;;
54430;SDS011;40342;52.998;5.862;2023-12-20T05:59:57;21.30;;;4.18;;
54430;SDS011;40342;52.998;5.862;2023-12-20T06:02:23;23.70;;;4.72;;
54430;SDS011;40342;52.998;5.862;2023-12-20T06:04:48;28.98;;;5.15;;
54430;SDS011;40342;52.998;5.862;2023-12-20T06:07:15;27.52;;;4.15;;
54430;SDS011;40342;52.998;5.862;2023-12-20T06:09:41;21.85;;;6.03;;
54430;SDS011;40342;52.998;5.862;2023-12-20T06:12:07;19.55;;;4.15;;
54430;SDS011;40342;52.998;5.862;2023-12-20T06:14:36;20.25;;;4.07;;
54430;SDS011;40342;52.998;5.862;2023-12-20T06:17:01;28.42;;;4.70;;
54430;SDS011;40342;52.998;5.862;2023-12-20T06:19:27;26.23;;;5.30;;
54430;SDS011;40342;52.998;5.862;2023-12-20T06:21:53;26.65;;;4.30;;
54430;SDS011;40342;52.998;5.862;2023-12-20T06:24:19;19.50;;;4.18;;
54430;SDS011;40342;52.998;5.862;2023-12-20T06:26:45;24.58;;;4.95;;
54430;SDS011;40342;52.998;5.862;2023-12-20T06:29:10;29.75;;;5.18;;
54430;SDS011;40342;52.998;5.862;2023-12-20T06:31:36;26.95;;;4.72;;
54430;SDS011;40342;52.998;5.862;2023-12-20T06:34:02;19.48;;;4.40;;
54430;SDS011;40342;52.998;5.862;2023-12-20T06:36:28;23.48;;;4.32;;
54430;SDS011;40342;52.998;5.862;2023-12-20T06:38:53;14.63;;;3.50;;
54430;SDS011;40342;52.998;5.862;2023-12-20T06:41:19;27.83;;;4.88;;
54430;SDS011;40342;52.998;5.862;2023-12-20T06:43:45;23.60;;;4.70;;
54430;SDS011;40342;52.998;5.862;2023-12-20T06:46:10;30.02;;;5.85;;
54430;SDS011;40342;52.998;5.862;2023-12-20T06:48:38;22.52;;;4.53;;
54430;SDS011;40342;52.998;5.862;2023-12-20T06:51:04;21.55;;;4.55;;
54430;SDS011;40342;52.998;5.862;2023-12-20T06:53:30;23.02;;;4.50;;
54430;SDS011;40342;52.998;5.862;2023-12-20T06:55:56;21.67;;;4.45;;
54430;SDS011;40342;52.998;5.862;2023-12-20T06:58:22;20.05;;;4.47;;
54430;SDS011;40342;52.998;5.862;2023-12-20T07:00:48;22.92;;;4.80;;
54430;SDS011;40342;52.998;5.862;2023-12-20T07:03:14;24.35;;;4.40;;
54430;SDS011;40342;52.998;5.862;2023-12-20T07:05:39;28.35;;;4.65;;
54430;SDS011;40342;52.998;5.862;2023-12-20T07:08:05;18.90;;;4.32;;
54430;SDS011;40342;52.998;5.862;2023-12-20T07:10:31;25.75;;;5.05;;
54430;SDS011;40342;52.998;5.862;2023-12-20T07:12:57;25.17;;;4.82;;
54430;SDS011;40342;52.998;5.862;2023-12-20T07:15:22;26.20;;;4.68;;
54430;SDS011;40342;52.998;5.862;2023-12-20T07:17:48;21.63;;;5.30;;
54430;SDS011;40342;52.998;5.862;2023-12-20T07:20:14;21.75;;;4.47;;
54430;SDS011;40342;52.998;5.862;2023-12-20T07:22:40;27.15;;;4.97;;
54430;SDS011;40342;52.998;5.862;2023-12-20T07:25:06;29.63;;;5.28;;
54430;SDS011;40342;52.998;5.862;2023-12-20T07:27:32;18.52;;;4.18;;
54430;SDS011;40342;52.998;5.862;2023-12-20T07:29:58;25.42;;;6.28;;
54430;SDS011;40342;52.998;5.862;2023-12-20T07:32:23;26.45;;;5.43;;
54430;SDS011;40342;52.998;5.862;2023-12-20T07:34:49;19.10;;;4.50;;
54430;SDS011;40342;52.998;5.862;2023-12-20T07:37:15;20.88;;;3.97;;
54430;SDS011;40342;52.998;5.862;2023-12-20T07:39:40;22.80;;;4.13;;
54430;SDS011;40342;52.998;5.862;2023-12-20T07:42:07;19.00;;;4.63;;
54430;SDS011;40342;52.998;5.862;2023-12-20T07:44:33;24.30;;;4.90;;
54430;SDS011;40342;52.998;5.862;2023-12-20T07:46:58;23.02;;;4.93;;
54430;SDS011;40342;52.998;5.862;2023-12-20T07:49:24;28.42;;;5.72;;
54430;SDS011;40342;52.998;5.862;2023-12-20T07:51:50;29.80;;;4.70;;
54430;SDS011;40342;52.998;5.862;2023-12-20T07:54:15;16.27;;;4.47;;
54430;SDS011;40342;52.998;5.862;2023-12-20T07:56:41;25.55;;;4.78;;
54430;SDS011;40342;52.998;5.862;2023-12-20T07:59:07;18.95;;;4.88;;
54430;SDS011;40342;52.998;5.862;2023-12-20T08:01:32;21.17;;;4.78;;
54430;SDS011;40342;52.998;5.862;2023-12-20T08:03:58;25.67;;;4.60;;
54430;SDS011;40342;52.998;5.862;2023-12-20T08:06:24;24.48;;;4.10;;
54430;SDS011;40342;52.998;5.862;2023-12-20T08:08:49;23.70;;;4.90;;
54430;SDS011;40342;52.998;5.862;2023-12-20T08:11:15;23.88;;;4.82;;
54430;SDS011;40342;52.998;5.862;2023-12-20T08:13:41;24.80;;;5.38;;
54430;SDS011;40342;52.998;5.862;2023-12-20T08:16:06;26.00;;;5.15;;
54430;SDS011;40342;52.998;5.862;2023-12-20T08:18:32;21.40;;;4.25;;
54430;SDS011;40342;52.998;5.862;2023-12-20T08:20:58;23.02;;;5.40;;
54430;SDS011;40342;52.998;5.862;2023-12-20T08:23:25;27.30;;;4.13;;
54430;SDS011;40342;52.998;5.862;2023-12-20T08:25:50;24.13;;;4.35;;
54430;SDS011;40342;52.998;5.862;2023-12-20T08:28:16;26.08;;;4.85;;
54430;SDS011;40342;52.998;5.862;2023-12-20T08:30:42;25.58;;;4.65;;
54430;SDS011;40342;52.998;5.862;2023-12-20T08:33:07;21.88;;;4.40;;
54430;SDS011;40342;52.998;5.862;2023-12-20T08:35:37;19.00;;;4.13;;
54430;SDS011;40342;52.998;5.862;2023-12-20T08:38:06;18.33;;;3.42;;
54430;SDS011;40342;52.998;5.862;2023-12-20T08:40:31;27.27;;;5.13;;
54430;SDS011;40342;52.998;5.862;2023-12-20T08:42:57;15.52;;;3.45;;
54430;SDS011;40342;52.998;5.862;2023-12-20T08:45:23;22.20;;;3.88;;
54430;SDS011;40342;52.998;5.862;2023-12-20T08:47:49;19.17;;;3.80;;
54430;SDS011;40342;52.998;5.862;2023-12-20T08:50:15;19.73;;;4.32;;
54430;SDS011;40342;52.998;5.862;2023-12-20T08:52:40;18.17;;;4.15;;
54430;SDS011;40342;52.998;5.862;2023-12-20T08:55:07;19.02;;;4.07;;
54430;SDS011;40342;52.998;5.862;2023-12-20T08:57:33;20.63;;;3.63;;
54430;SDS011;40342;52.998;5.862;2023-12-20T08:59:59;19.80;;;4.20;;
54430;SDS011;40342;52.998;5.862;2023-12-20T09:02:25;26.30;;;4.35;;
54430;SDS011;40342;52.998;5.862;2023-12-20T09:04:50;22.08;;;4.40;;
54430;SDS011;40342;52.998;5.862;2023-12-20T09:07:25;17.27;;;4.50;;
54430;SDS011;40342;52.998;5.862;2023-12-20T09:09:52;22.45;;;4.38;;
54430;SDS011;40342;52.998;5.862;2023-12-20T09:12:18;21.42;;;3.90;;
54430;SDS011;40342;52.998;5.862;2023-12-20T09:14:48;13.35;;;3.53;;
54430;SDS011;40342;52.998;5.862;2023-12-20T09:17:15;18.83;;;4.30;;
54430;SDS011;40342;52.998;5.862;2023-12-20T09:19:44;17.88;;;4.00;;
54430;SDS011;40342;52.998;5.862;2023-12-20T09:22:10;17.95;;;3.72;;
54430;SDS011;40342;52.998;5.862;2023-12-20T09:24:36;6.90;;;1.80;;
54430;SDS011;40342;52.998;5.862;2023-12-20T09:27:03;7.70;;;1.92;;
54430;SDS011;40342;52.998;5.862;2023-12-20T09:29:30;6.78;;;1.17;;
54430;SDS011;40342;52.998;5.862;2023-12-20T09:31:56;8.43;;;1.40;;
54430;SDS011;40342;52.998;5.862;2023-12-20T09:34:22;6.63;;;1.90;;
54430;SDS011;40342;52.998;5.862;2023-12-20T09:36:48;7.18;;;1.58;;
54430;SDS011;40342;52.998;5.862;2023-12-20T09:39:14;12.20;;;1.52;;
54430;SDS011;40342;52.998;5.862;2023-12-20T09:41:44;10.95;;;2.28;;
54430;SDS011;40342;52.998;5.862;2023-12-20T09:44:15;9.10;;;2.20;;
54430;SDS011;40342;52.998;5.862;2023-12-20T09:46:44;9.68;;;2.10;;
54430;SDS011;40342;52.998;5.862;2023-12-20T09:49:11;11.48;;;2.05;;
54430;SDS011;40342;52.998;5.862;2023-12-20T09:51:37;11.48;;;2.70;;
54430;SDS011;40342;52.998;5.862;2023-12-20T09:54:04;9.27;;;1.90;;
54430;SDS011;40342;52.998;5.862;2023-12-20T09:56:30;9.00;;;1.83;;
54430;SDS011;40342;52.998;5.862;2023-12-20T09:58:56;12.85;;;1.85;;
54430;SDS011;40342;52.998;5.862;2023-12-20T10:01:22;11.10;;;1.98;;
54430;SDS011;40342;52.998;5.862;2023-12-20T10:03:53;7.05;;;1.50;;
54430;SDS011;40342;52.998;5.862;2023-12-20T10:06:19;12.80;;;2.25;;
54430;SDS011;40342;52.998;5.862;2023-12-20T10:08:46;7.80;;;2.05;;
54430;SDS011;40342;52.998;5.862;2023-12-20T10:11:12;9.35;;;2.10;;
54430;SDS011;40342;52.998;5.862;2023-12-20T10:13:39;10.18;;;1.80;;
54430;SDS011;40342;52.998;5.862;2023-12-20T10:16:06;8.75;;;1.58;;
54430;SDS011;40342;52.998;5.862;2023-12-20T10:18:35;12.23;;;1.73;;
54430;SDS011;40342;52.998;5.862;2023-12-20T10:21:01;10.85;;;2.30;;
54430;SDS011;40342;52.998;5.862;2023-12-20T10:23:28;5.35;;;1.77;;
54430;SDS011;40342;52.998;5.862;2023-12-20T10:25:57;8.27;;;1.92;;
54430;SDS011;40342;52.998;5.862;2023-12-20T10:28:24;8.13;;;1.40;;
54430;SDS011;40342;52.998;5.862;2023-12-20T10:30:52;7.40;;;1.60;;
54430;SDS011;40342;52.998;5.862;2023-12-20T10:33:25;5.60;;;1.40;;
54430;SDS011;40342;52.998;5.862;2023-12-20T10:35:53;10.10;;;1.83;;
54430;SDS011;40342;52.998;5.862;2023-12-20T10:38:20;9.73;;;2.25;;
54430;SDS011;40342;52.998;5.862;2023-12-20T10:40:46;11.55;;;2.13;;
54430;SDS011;40342;52.998;5.862;2023-12-20T10:43:11;12.23;;;1.67;;
54430;SDS011;40342;52.998;5.862;2023-12-20T10:45:38;8.55;;;1.75;;
54430;SDS011;40342;52.998;5.862;2023-12-20T10:48:04;12.63;;;2.33;;
54430;SDS011;40342;52.998;5.862;2023-12-20T10:50:30;10.82;;;1.73;;
54430;SDS011;40342;52.998;5.862;2023-12-20T10:52:57;13.32;;;2.33;;
54430;SDS011;40342;52.998;5.862;2023-12-20T10:55:24;14.95;;;2.30;;
54430;SDS011;40342;52.998;5.862;2023-12-20T10:58:00;7.15;;;1.45;;
54430;SDS011;40342;52.998;5.862;2023-12-20T11:00:26;10.38;;;2.20;;
54430;SDS011;40342;52.998;5.862;2023-12-20T11:02:55;9.35;;;2.20;;
54430;SDS011;40342;52.998;5.862;2023-12-20T11:11:27;11.07;;;2.45;;
54430;SDS011;40342;52.998;5.862;2023-12-20T11:14:02;13.13;;;2.20;;
54430;SDS011;40342;52.998;5.862;2023-12-20T11:16:33;12.57;;;2.25;;
54430;SDS011;40342;52.998;5.862;2023-12-20T11:19:05;19.92;;;2.30;;
54430;SDS011;40342;52.998;5.862;2023-12-20T11:21:31;11.70;;;2.45;;
54430;SDS011;40342;52.998;5.862;2023-12-20T11:23:56;16.92;;;2.72;;
54430;SDS011;40342;52.998;5.862;2023-12-20T11:26:22;16.05;;;2.75;;
54430;SDS011;40342;52.998;5.862;2023-12-20T11:28:53;12.48;;;2.50;;
54430;SDS011;40342;52.998;5.862;2023-12-20T11:31:19;17.30;;;2.75;;
54430;SDS011;40342;52.998;5.862;2023-12-20T11:33:45;14.32;;;2.67;;
54430;SDS011;40342;52.998;5.862;2023-12-20T11:36:14;21.90;;;2.90;;
54430;SDS011;40342;52.998;5.862;2023-12-20T11:38:56;16.02;;;2.40;;
54430;SDS011;40342;52.998;5.862;2023-12-20T11:41:25;16.60;;;3.33;;
54430;SDS011;40342;52.998;5.862;2023-12-20T11:43:55;14.63;;;2.97;;
54430;SDS011;40342;52.998;5.862;2023-12-20T11:46:21;12.90;;;2.95;;
54430;SDS011;40342;52.998;5.862;2023-12-20T11:48:47;15.60;;;2.75;;
54430;SDS011;40342;52.998;5.862;2023-12-20T11:51:13;13.10;;;2.67;;
54430;SDS011;40342;52.998;5.862;2023-12-20T11:53:40;18.15;;;3.20;;
54430;SDS011;40342;52.998;5.862;2023-12-20T11:56:07;12.95;;;2.70;;
54430;SDS011;40342;52.998;5.862;2023-12-20T11:58:33;11.43;;;2.45;;
54430;SDS011;40342;52.998;5.862;2023-12-20T12:00:59;13.48;;;2.67;;
54430;SDS011;40342;52.998;5.862;2023-12-20T12:03:27;12.63;;;2.15;;
54430;SDS011;40342;52.998;5.862;2023-12-20T12:05:53;13.80;;;2.33;;
54430;SDS011;40342;52.998;5.862;2023-12-20T12:08:18;11.00;;;2.08;;
54430;SDS011;40342;52.998;5.862;2023-12-20T12:10:44;8.55;;;1.90;;
54430;SDS011;40342;52.998;5.862;2023-12-20T12:13:10;12.07;;;2.20;;
54430;SDS011;40342;52.998;5.862;2023-12-20T12:15:36;13.43;;;2.28;;
54430;SDS011;40342;52.998;5.862;2023-12-20T12:18:03;15.23;;;2.60;;
54430;SDS011;40342;52.998;5.862;2023-12-20T12:20:29;10.05;;;1.98;;
54430;SDS011;40342;52.998;5.862;2023-12-20T12:23:02;10.38;;;2.30;;
54430;SDS011;40342;52.998;5.862;2023-12-20T12:25:30;12.18;;;1.85;;
54430;SDS011;40342;52.998;5.862;2023-12-20T12:27:56;9.00;;;1.77;;
54430;SDS011;40342;52.998;5.862;2023-12-20T12:30:23;10.65;;;2.30;;
54430;SDS011;40342;52.998;5.862;2023-12-20T12:32:50;10.88;;;1.83;;
54430;SDS011;40342;52.998;5.862;2023-12-20T12:35:16;7.22;;;1.60;;
54430;SDS011;40342;52.998;5.862;2023-12-20T12:37:43;6.25;;;2.03;;
54430;SDS011;40342;52.998;5.862;2023-12-20T12:40:12;6.32;;;1.40;;
54430;SDS011;40342;52.998;5.862;2023-12-20T12:42:39;6.28;;;1.55;;
54430;SDS011;40342;52.998;5.862;2023-12-20T12:45:06;9.45;;;1.90;;
54430;SDS011;40342;52.998;5.862;2023-12-20T12:47:32;9.52;;;1.92;;
54430;SDS011;40342;52.998;5.862;2023-12-20T12:49:59;13.68;;;2.25;;
54430;SDS011;40342;52.998;5.862;2023-12-20T12:52:24;7.18;;;1.70;;
54430;SDS011;40342;52.998;5.862;2023-12-20T12:54:51;9.88;;;1.80;;
54430;SDS011;40342;52.998;5.862;2023-12-20T12:57:17;10.20;;;1.98;;
54430;SDS011;40342;52.998;5.862;2023-12-20T12:59:44;6.32;;;1.38;;
54430;SDS011;40342;52.998;5.862;2023-12-20T13:02:11;7.28;;;1.50;;
54430;SDS011;40342;52.998;5.862;2023-12-20T13:04:38;5.03;;;1.50;;
54430;SDS011;40342;52.998;5.862;2023-12-20T13:07:07;5.15;;;1.35;;
54430;SDS011;40342;52.998;5.862;2023-12-20T13:09:35;5.50;;;1.40;;
54430;SDS011;40342;52.998;5.862;2023-12-20T13:12:01;6.57;;;1.40;;
54430;SDS011;40342;52.998;5.862;2023-12-20T13:14:29;4.55;;;1.23;;
54430;SDS011;40342;52.998;5.862;2023-12-20T13:16:58;4.35;;;1.40;;
54430;SDS011;40342;52.998;5.862;2023-12-20T13:19:23;6.47;;;1.20;;
54430;SDS011;40342;52.998;5.862;2023-12-20T13:21:49;4.32;;;1.08;;
54430;SDS011;40342;52.998;5.862;2023-12-20T13:24:14;9.38;;;1.17;;
54430;SDS011;40342;52.998;5.862;2023-12-20T13:26:40;6.97;;;1.15;;
54430;SDS011;40342;52.998;5.862;2023-12-20T13:29:06;6.60;;;1.25;;
54430;SDS011;40342;52.998;5.862;2023-12-20T13:31:31;4.10;;;0.95;;
54430;SDS011;40342;52.998;5.862;2023-12-20T13:33:57;4.40;;;1.30;;
54430;SDS011;40342;52.998;5.862;2023-12-20T13:36:22;7.72;;;1.38;;
54430;SDS011;40342;52.998;5.862;2023-12-20T13:38:48;6.13;;;1.63;;
54430;SDS011;40342;52.998;5.862;2023-12-20T13:41:14;8.02;;;1.60;;
54430;SDS011;40342;52.998;5.862;2023-12-20T13:43:39;5.05;;;1.20;;
54430;SDS011;40342;52.998;5.862;2023-12-20T13:46:05;7.68;;;1.50;;
54430;SDS011;40342;52.998;5.862;2023-12-20T13:48:30;8.43;;;1.63;;
54430;SDS011;40342;52.998;5.862;2023-12-20T13:50:56;6.95;;;1.42;;
54430;SDS011;40342;52.998;5.862;2023-12-20T13:53:22;7.80;;;1.65;;
54430;SDS011;40342;52.998;5.862;2023-12-20T13:55:47;9.57;;;1.58;;
54430;SDS011;40342;52.998;5.862;2023-12-20T13:58:13;7.25;;;1.35;;
54430;SDS011;40342;52.998;5.862;2023-12-20T14:00:39;12.88;;;1.98;;
54430;SDS011;40342;52.998;5.862;2023-12-20T14:03:05;7.28;;;1.23;;
54430;SDS011;40342;52.998;5.862;2023-12-20T14:05:31;8.15;;;2.08;;
54430;SDS011;40342;52.998;5.862;2023-12-20T14:07:56;12.25;;;2.13;;
54430;SDS011;40342;52.998;5.862;2023-12-20T14:10:23;9.30;;;1.73;;
54430;SDS011;40342;52.998;5.862;2023-12-20T14:12:50;9.43;;;1.65;;
54430;SDS011;40342;52.998;5.862;2023-12-20T14:15:16;8.18;;;1.75;;
54430;SDS011;40342;52.998;5.862;2023-12-20T14:17:41;11.50;;;2.13;;
54430;SDS011;40342;52.998;5.862;2023-12-20T14:20:07;11.05;;;1.77;;
54430;SDS011;40342;52.998;5.862;2023-12-20T14:22:33;10.90;;;2.22;;
54430;SDS011;40342;52.998;5.862;2023-12-20T14:24:59;13.48;;;2.20;;
54430;SDS011;40342;52.998;5.862;2023-12-20T14:27:26;18.25;;;2.83;;
54430;SDS011;40342;52.998;5.862;2023-12-20T14:29:53;21.88;;;3.83;;
54430;SDS011;40342;52.998;5.862;2023-12-20T14:32:19;19.23;;;3.20;;
54430;SDS011;40342;52.998;5.862;2023-12-20T14:34:45;21.25;;;3.58;;